METAR Data
IDs: Format: Raw Decoded Include TAF

Data at: 2159 UTC 20 Nov 2018

KELP 202151Z 07004KT 10SM SCT180 BKN250 18/00 A3012 RMK AO2 SLP169 T01780000
KELP 202051Z 12007KT 10SM FEW180 SCT250 17/00 A3014 RMK AO2 SLP176 T01720000 56037
KELP 201951Z 09008KT 10SM FEW250 16/01 A3017 RMK AO2 SLP187 T01610006
KELP 201851Z 09007KT 10SM FEW240 15/00 A3022 RMK AO2 SLP207 T01500000
KELP 201751Z 04005KT 10SM FEW240 14/M02 A3026 RMK AO2 SLP217 T01391017 10139 20039 58003
KELP 201651Z 01008KT 10SM FEW180 FEW240 12/M03 A3028 RMK AO2 SLP227 T01171033
KELP 201551Z 35008KT 10SM FEW180 FEW240 09/M06 A3028 RMK AO2 SLP229 T00891056
KELP 201451Z 36011KT 10SM FEW180 FEW250 06/M06 A3027 RMK AO2 SLP228 T00611061 53012
KELP 201351Z 36011KT 10SM FEW250 05/M06 A3025 RMK AO2 SLP222 T00501061
KELP 201251Z 01009KT 10SM CLR 04/M06 A3025 RMK AO2 SLP217 T00441056
KELP 201151Z 01010KT 10SM CLR 04/M05 A3023 RMK AO2 SLP208 T00441050 10072 20033 55001
KELP 201051Z 01008KT 10SM CLR 04/M05 A3023 RMK AO2 SLP206 T00391050
KELP 200951Z 02007KT 10SM FEW250 04/M06 A3023 RMK AO2 SLP207 T00391056
KELP 200851Z 04006KT 10SM FEW250 04/M07 A3024 RMK AO2 SLP209 T00391067 51002
KELP 200751Z 33004KT 10SM FEW250 06/M06 A3023 RMK AO2 SLP208 T00561056
KELP 200651Z 34003KT 10SM FEW250 05/M06 A3024 RMK AO2 SLP209 T00501061 401890022
KELP 200551Z 03007KT 10SM SCT250 08/M08 A3023 RMK AO2 SLP207 T00781078 10161 20072 51012
KELP 200451Z 04005KT 10SM SCT250 08/M07 A3022 RMK AO2 SLP207 T00831072
KELP 200351Z 35007KT 10SM SCT250 09/M06 A3021 RMK AO2 SLP202 T00941061
KELP 200251Z 03007KT 10SM FEW250 11/M07 A3019 RMK AO2 SLP200 T01061067 53015
KELP 200151Z 36005KT 10SM FEW250 12/M06 A3017 RMK AO2 SLP198 T01171056
KELP 200051Z 09003KT 10SM FEW250 14/M08 A3015 RMK AO2 SLP187 T01391078
KELP 192351Z 10004KT 10SM FEW250 16/M08 A3014 RMK AO2 SLP180 T01611078 10189 20133 53002
KELP 192251Z 00000KT 10SM FEW250 18/M08 A3013 RMK AO2 SLP173 T01781078
KELP 192151Z VRB03KT 10SM FEW250 18/M07 A3013 RMK AO2 SLP169 T01831072
KELP 192051Z VRB03KT 10SM FEW250 18/M07 A3014 RMK AO2 SLP171 T01781067 58023
KELP 191951Z 01009KT 10SM FEW250 17/M07 A3016 RMK AO2 SLP181 T01671067
KELP 191851Z 36010KT 10SM FEW250 16/M03 A3019 RMK AO2 SLP190 T01561028
KELP 191751Z 35006KT 10SM FEW250 13/M02 A3021 RMK AO2 SLP199 T01331017 10139 20022 50010
KELP 191651Z 01005KT 10SM FEW250 12/M01 A3021 RMK AO2 SLP203 T01171011
KELP 191551Z 04005KT 10SM FEW250 09/M01 A3020 RMK AO2 SLP200 T00891011
KELP 191451Z 03009KT 10SM FEW100 FEW250 06/M01 A3017 RMK AO2 SLP194 T00561011 51014
KELP 191351Z 01006KT 10SM FEW100 FEW250 03/M02 A3016 RMK AO2 SLP191 T00281022
KELP 191251Z 02006KT 10SM FEW250 03/M02 A3015 RMK AO2 SLP185 T00281022
KELP 191151Z 01007KT 10SM FEW250 03/M03 A3013 RMK AO2 SLP176 T00281028 10089 20028 53007
KELP 191051Z 18004KT 10SM CLR 04/M01 A3010 RMK AO2 SLP163 T00441011